Time;durP1;ratioP1;P1;durP2;ratioP2;P2;SDS_P1;SDS_P2;PMS_P1;PMS_P2;Temp;Humidity;BMP_temperature;BMP_pressure;BME280_temperature;BME280_humidity;BME280_pressure;Samples;Min_cycle;Max_cycle;Signal;HPM_P1;HPM_P2
2022/04/22 00:04:52;;;;;;;6.47;3.00;;;;;;;12.18;61.22;97448.66;10290848;28;20034;-60
2022/04/22 00:09:51;;;;;;;3.75;2.47;;;;;;;12.11;62.53;97441.81;10290070;28;20061;-60
2022/04/22 00:14:50;;;;;;;4.35;2.80;;;;;;;11.98;63.62;97417.69;10290179;28;20026;-60
2022/04/22 00:19:49;;;;;;;5.20;3.15;;;;;;;11.88;63.91;97401.34;10290784;28;20022;-60
2022/04/22 00:24:48;;;;;;;6.60;3.97;;;;;;;12.02;63.63;97437.56;10290025;28;20061;-60
2022/04/22 00:29:47;;;;;;;5.93;3.10;;;;;;;11.96;63.57;97428.97;10289968;28;20041;-60
2022/04/22 00:34:46;;;;;;;12.05;6.43;;;;;;;11.89;64.54;97423.84;10289805;28;20468;-60
2022/04/22 00:39:45;;;;;;;4.28;3.13;;;;;;;11.90;65.71;97440.31;10290034;28;20460;-60
2022/04/22 00:44:44;;;;;;;4.72;2.88;;;;;;;11.39;66.03;97377.63;10289934;28;20034;-60
2022/04/22 00:49:43;;;;;;;7.30;2.90;;;;;;;11.76;66.27;97444.78;10289609;28;20473;-60
2022/04/22 00:54:42;;;;;;;4.05;2.78;;;;;;;11.78;66.18;97436.13;10289830;28;20451;-60
2022/04/22 00:59:41;;;;;;;;;;;;;;;11.78;67.08;97438.72;10289777;28;20069;-60
2022/04/22 01:09:57;;;;;;;6.63;3.60;;;;;;;11.67;68.76;97399.84;10289362;28;20062;-60
2022/04/22 01:14:58;;;;;;;5.47;3.28;;;;;;;10.47;69.76;97208.03;10293160;28;20068;-60
2022/04/22 01:19:57;;;;;;;6.45;3.35;;;;;;;11.43;72.21;97385.38;10294785;28;20058;-60
2022/04/22 01:25:01;;;;;;;11.07;5.43;;;;;;;11.02;71.59;97384.03;10297659;28;20113;-60
2022/04/22 01:30:02;;;;;;;10.07;5.88;;;;;;;11.14;71.80;97418.56;10296370;28;20057;-60
2022/04/22 01:35:03;;;;;;;8.70;5.32;;;;;;;11.13;72.48;97388.28;10296282;28;20054;-60
2022/04/22 01:40:03;;;;;;;7.95;5.32;;;;;;;11.10;72.12;97381.34;10296379;28;20057;-60
2022/04/22 01:45:03;;;;;;;8.32;4.45;;;;;;;11.04;72.96;97371.88;10295739;28;20053;-60
2022/04/22 01:50:03;;;;;;;10.60;5.75;;;;;;;10.72;73.29;97304.66;10295272;28;20073;-60
2022/04/22 01:55:03;;;;;;;;;;;;;;;10.98;73.98;97348.56;10296127;28;20065;-61
2022/04/22 02:00:04;;;;;;;9.70;5.65;;;;;;;10.92;74.39;97351.25;10295090;28;19956;-60
2022/04/22 02:05:05;;;;;;;13.32;7.22;;;;;;;10.51;74.71;97279.75;10293807;28;20648;-60
2022/04/22 02:10:06;;;;;;;11.23;7.03;;;;;;;10.74;75.12;97333.19;10294925;28;20053;-60
2022/04/22 02:15:05;;;;;;;12.50;7.13;;;;;;;10.60;76.17;97334.16;10294688;28;20058;-60
2022/04/22 02:20:05;;;;;;;12.95;6.97;;;;;;;10.53;76.83;97337.66;10294538;28;20466;-60
2022/04/22 02:25:04;;;;;;;;;;;;;;;10.48;77.37;97342.03;10293480;28;20507;-60
2022/04/22 02:30:03;;;;;;;15.68;9.98;;;;;;;10.36;77.75;97339.53;10294133;28;19979;-60
2022/04/22 02:35:02;;;;;;;9.77;7.00;;;;;;;10.28;78.65;97349.94;10294130;28;20060;-60
2022/04/22 02:40:01;;;;;;;6.60;4.35;;;;;;;9.83;80.49;97338.09;10294448;28;20501;-60
2022/04/22 02:45:26;;;;;;;7.05;3.75;;;;;;;9.99;80.12;97376.91;10293365;28;20108;-61
2022/04/22 02:50:25;;;;;;;6.75;4.13;;;;;;;9.52;80.11;97301.97;10293249;28;20080;-60
2022/04/22 02:55:24;;;;;;;8.73;4.40;;;;;;;9.93;80.68;97376.06;10293027;28;20184;-60
2022/04/22 03:00:24;;;;;;;5.28;3.15;;;;;;;9.83;80.97;97348.47;10293098;28;20038;-60
2022/04/22 03:05:23;;;;;;;6.75;3.90;;;;;;;9.61;80.35;97275.19;10292520;28;20057;-60
2022/04/22 03:10:22;;;;;;;5.65;4.03;;;;;;;10.04;79.69;97342.31;10292321;28;20105;-60
2022/04/22 03:15:21;;;;;;;7.75;4.00;;;;;;;9.72;79.92;97274.25;10292926;28;20113;-60
2022/04/22 03:20:19;;;;;;;9.88;5.50;;;;;;;9.98;80.62;97318.16;10292105;28;20029;-60
2022/04/22 03:25:20;;;;;;;8.55;4.88;;;;;;;9.78;81.49;97325.16;10292161;28;20492;-60
2022/04/22 03:30:19;;;;;;;17.75;8.80;;;;;;;9.90;81.57;97357.94;10292131;28;20057;-60
2022/04/22 03:35:18;;;;;;;17.00;9.40;;;;;;;9.87;82.33;97356.22;10291446;28;20084;-60
2022/04/22 03:40:17;;;;;;;10.13;5.88;;;;;;;9.86;81.97;97356.22;10291126;28;20522;-60
2022/04/22 03:45:16;;;;;;;9.48;4.78;;;;;;;9.86;82.69;97358.81;10292425;28;20113;-61
2022/04/22 03:50:15;;;;;;;9.13;4.90;;;;;;;9.64;83.66;97345.09;10291070;28;20534;-60
2022/04/22 03:55:14;;;;;;;7.38;4.10;;;;;;;9.65;83.11;97346.81;10291038;28;20061;-60
2022/04/22 04:00:13;;;;;;;12.25;6.80;;;;;;;9.57;82.61;97346.84;10291114;28;20109;-61
2022/04/22 04:05:12;;;;;;;13.00;7.22;;;;;;;9.82;82.51;97362.31;10291080;28;20061;-60
2022/04/22 04:26:05;;;;;;;18.25;9.48;;;;;;;10.15;80.61;97349.16;10290541;28;20065;-61
2022/04/22 04:31:05;;;;;;;11.77;6.53;;;;;;;9.97;81.09;97362.22;10290542;28;20069;-60
2022/04/22 04:36:05;;;;;;;11.63;7.28;;;;;;;9.71;83.75;97360.59;10289893;28;20472;-60
2022/04/22 04:41:06;;;;;;;9.05;5.35;;;;;;;9.34;85.92;97365.91;10290179;28;20053;-61
2022/04/22 04:46:05;;;;;;;21.95;13.48;;;;;;;9.31;86.21;97375.41;10289717;28;20072;-60
2022/04/22 04:51:05;;;;;;;10.75;5.70;;;;;;;9.18;88.13;97378.84;10295649;28;20081;-60
2022/04/22 04:56:04;;;;;;;16.02;10.25;;;;;;;8.96;87.61;97357.31;10296870;28;20064;-60
2022/04/22 05:01:04;;;;;;;;;;;;;;;9.00;89.32;97352.16;10297094;28;20061;-60
2022/04/22 05:06:03;;;;;;;19.30;10.40;;;;;;;8.98;89.72;97360.78;10297128;28;19957;-60
2022/04/22 05:11:02;;;;;;;8.88;5.60;;;;;;;8.94;90.58;97334.88;10297261;28;20057;-60
2022/04/22 05:16:02;;;;;;;15.55;8.80;;;;;;;8.82;92.21;97331.47;10296981;28;20073;-60
2022/04/22 05:21:01;;;;;;;15.82;7.93;;;;;;;8.94;92.04;97324.53;10296961;28;20061;-60
2022/04/22 05:26:04;;;;;;;15.48;7.85;;;;;;;9.12;91.26;97312.44;10295450;28;20041;-60
2022/04/22 05:36:21;;;;;;;18.50;10.35;;;;;;;9.46;90.72;97281.28;10296753;28;20491;-60
2022/04/22 05:41:20;;;;;;;18.00;9.73;;;;;;;9.61;90.96;97282.94;10295959;28;20029;-60
2022/04/22 05:46:19;;;;;;;15.55;9.40;;;;;;;9.80;90.11;97275.94;10295401;28;20042;-60
2022/04/22 05:51:18;;;;;;;15.73;8.85;;;;;;;9.97;89.14;97249.03;10295940;28;20129;-60
2022/04/22 05:56:17;;;;;;;20.70;11.02;;;;;;;10.17;88.61;97230.75;10295429;28;20041;-60
2022/04/22 06:01:16;;;;;;;14.95;8.35;;;;;;;10.31;87.83;97217.69;10295039;28;20072;-60
2022/04/22 06:06:14;;;;;;;14.88;8.32;;;;;;;10.51;87.44;97181.16;10295318;28;20042;-60
2022/04/22 06:11:13;;;;;;;15.75;9.43;;;;;;;10.61;87.01;97148.19;10295472;28;20053;-60
2022/04/22 06:16:13;;;;;;;33.70;20.45;;;;;;;10.81;85.23;97125.47;10294796;28;20040;-60
2022/04/22 06:21:13;;;;;;;34.08;18.75;;;;;;;10.94;84.53;97102.00;10293915;28;20077;-61
2022/04/22 06:26:12;;;;;;;27.88;16.80;;;;;;;11.17;85.13;97102.53;10294046;28;20073;-60
2022/04/22 06:31:11;;;;;;;24.08;16.73;;;;;;;11.20;84.60;97094.72;10294731;28;20135;-60
2022/04/22 06:36:14;;;;;;;11.65;6.90;;;;;;;11.58;83.22;97128.81;10294273;28;20537;-60
2022/04/22 06:46:31;;;;;;;9.77;6.28;;;;;;;11.21;82.91;97140.56;10291215;28;20066;-60
2022/04/22 06:51:30;;;;;;;;;;;;;;;11.30;80.93;97147.41;10293569;28;20077;-60
2022/04/22 06:56:30;;;;;;;12.45;5.90;;;;;;;11.53;79.87;97148.81;10293494;28;20346;-60
2022/04/22 07:01:29;;;;;;;11.68;6.35;;;;;;;11.43;79.50;97091.78;10291781;28;20539;-60
2022/04/22 07:06:29;;;;;;;48.35;21.35;;;;;;;12.24;79.09;97152.00;10292889;28;20061;-60
2022/04/22 07:11:28;;;;;;;12.88;7.32;;;;;;;11.84;78.92;97090.25;10291497;28;20062;-60
2022/04/22 07:16:28;;;;;;;25.75;14.32;;;;;;;11.53;79.02;97011.13;10292353;28;20479;-60
2022/04/22 07:21:27;;;;;;;24.42;15.05;;;;;;;12.60;77.06;97099.34;10290638;28;20073;-60
2022/04/22 07:26:27;;;;;;;8.60;5.15;;;;;;;12.99;75.03;97125.47;10292082;28;20061;-60
2022/04/22 07:31:28;;;;;;;;;;;;;;;13.25;74.52;97111.88;10292932;28;20479;-61
2022/04/22 07:36:28;;;;;;;12.95;7.30;;;;;;;13.52;73.45;97103.44;10291430;28;20351;-62
2022/04/22 07:41:28;;;;;;;11.88;6.65;;;;;;;13.80;70.84;97089.78;10291395;28;20064;-62
2022/04/22 07:46:47;;;;;;;14.13;8.02;;;;;;;14.01;70.28;97092.75;10291170;28;20066;-62
2022/04/22 07:51:46;;;;;;;8.20;5.43;;;;;;;14.33;69.97;97091.91;10290795;28;20085;-61
2022/04/22 07:56:45;;;;;;;6.22;3.92;;;;;;;14.52;68.55;97092.25;10291359;28;20095;-61
2022/04/22 08:01:44;;;;;;;8.77;4.78;;;;;;;14.59;66.92;97076.41;10290508;28;20124;-61
2022/04/22 08:06:43;;;;;;;9.60;4.50;;;;;;;14.89;67.63;97052.09;10290024;28;20104;-61
2022/04/22 08:11:43;;;;;;;9.50;5.45;;;;;;;15.13;63.02;97043.53;10290933;28;20034;-62
2022/04/22 08:16:42;;;;;;;5.00;2.65;;;;;;;15.59;58.88;97026.38;10290110;28;20460;-62
2022/04/22 08:21:41;;;;;;;;;;;;;;;15.95;57.05;97014.75;10290153;28;20484;-62
2022/04/22 08:26:40;;;;;;;3.35;2.53;;;;;;;16.03;54.50;96940.31;10290545;28;19956;-62
2022/04/22 08:31:39;;;;;;;;;;;;;;;16.70;52.41;97012.94;10288520;28;20042;-62
2022/04/22 08:36:38;;;;;;;4.78;3.38;;;;;;;16.91;51.45;97006.06;10290026;28;20152;-62
2022/04/22 08:41:40;;;;;;;5.05;3.00;;;;;;;17.10;50.95;97003.56;10290048;28;20067;-62
2022/04/22 08:51:59;;;;;;;3.33;2.25;;;;;;;17.20;49.72;97021.56;10287063;28;20081;-62
2022/04/22 08:56:58;;;;;;;5.38;3.00;;;;;;;17.06;50.47;97007.22;10284003;28;20061;-62
2022/04/22 09:01:57;;;;;;;11.15;5.75;;;;;;;17.05;49.61;97004.66;10285160;28;20061;-62
2022/04/22 09:06:57;;;;;;;;;;;;;;;17.24;49.11;96994.28;10285761;28;20049;-61
2022/04/22 09:12:14;;;;;;;5.20;3.42;;;;;;;17.54;49.84;96989.56;10286659;28;19949;-62
2022/04/22 09:17:21;;;;;;;3.95;2.58;;;;;;;17.83;48.50;96966.56;10288875;28;20061;-62
2022/04/22 09:22:25;;;;;;;2.78;1.80;;;;;;;17.70;46.03;96932.06;10288589;28;20528;-62
2022/04/22 09:27:35;;;;;;;3.80;2.25;;;;;;;17.90;46.53;96957.50;10289042;28;20496;-62
2022/04/22 09:32:39;;;;;;;9.43;3.22;;;;;;;17.86;45.33;96945.44;10288940;28;20494;-62
2022/04/22 09:43:02;;;;;;;3.38;2.20;;;;;;;18.14;45.07;96934.56;10296636;28;20066;-62
2022/04/22 09:48:01;;;;;;;4.57;2.13;;;;;;;18.12;44.06;96939.88;10296432;28;20065;-62
2022/04/22 09:53:03;;;;;;;3.78;2.08;;;;;;;18.09;42.75;96895.38;10295655;28;21056;-61
2022/04/22 09:58:02;;;;;;;4.50;2.08;;;;;;;18.69;44.67;96931.22;10294994;28;20065;-61
2022/04/22 10:03:01;;;;;;;3.63;2.35;;;;;;;19.02;41.93;96908.59;10295698;28;20069;-61
2022/04/22 10:08:03;;;;;;;3.58;2.33;;;;;;;19.02;41.83;96856.00;10295345;28;20057;-61
2022/04/22 10:13:04;;;;;;;4.72;3.08;;;;;;;19.55;42.56;96906.00;10295012;28;20069;-61
2022/04/22 10:18:04;;;;;;;3.35;2.30;;;;;;;19.67;41.43;96889.63;10295043;28;20065;-61
2022/04/22 10:23:03;;;;;;;3.45;1.92;;;;;;;19.64;39.89;96890.63;10294515;28;20071;-61
2022/04/22 10:28:08;;;;;;;4.10;2.22;;;;;;;19.72;40.13;96869.19;10294684;28;20058;-61
2022/04/22 10:33:09;;;;;;;3.03;2.13;;;;;;;18.93;39.15;96725.03;10294453;28;20076;-62
2022/04/22 10:38:27;;;;;;;4.88;2.50;;;;;;;20.14;39.65;96870.50;10293953;28;20062;-61
2022/04/22 10:43:27;;;;;;;2.47;1.77;;;;;;;20.32;38.33;96866.00;10293439;28;20068;-62
2022/04/22 10:48:28;;;;;;;2.65;1.80;;;;;;;20.54;35.68;96834.09;10293702;28;20385;-61
2022/04/22 10:53:34;;;;;;;4.20;2.33;;;;;;;20.76;37.24;96827.63;10290566;28;20085;-61
2022/04/22 10:58:33;;;;;;;5.10;2.45;;;;;;;20.67;36.77;96774.47;10289471;28;20053;-62
2022/04/22 11:03:37;;;;;;;3.90;2.83;;;;;;;21.46;37.57;96838.53;10291939;28;20037;-61
2022/04/22 11:08:39;;;;;;;7.30;2.85;;;;;;;21.82;37.78;96830.16;10291643;28;20562;-61
2022/04/22 11:13:40;;;;;;;3.17;2.13;;;;;;;22.12;36.66;96855.69;10292434;28;20066;-61
2022/04/22 11:18:41;;;;;;;5.00;2.45;;;;;;;22.21;35.36;96851.63;10292417;28;20057;-61
2022/04/22 11:23:46;;;;;;;4.30;3.13;;;;;;;22.36;35.81;96846.19;10291779;28;20415;-62
2022/04/22 11:28:46;;;;;;;2.70;1.65;;;;;;;22.47;35.41;96834.97;10289163;28;20069;-61
2022/04/22 11:33:52;;;;;;;5.75;3.40;;;;;;;22.62;36.76;96843.69;10288418;28;20061;-61
2022/04/22 11:38:52;;;;;;;4.90;2.17;;;;;;;22.74;35.19;96836.81;10289041;28;20061;-62
2022/04/22 11:43:51;;;;;;;5.22;3.33;;;;;;;22.70;35.68;96822.06;10291083;28;20068;-60
2022/04/22 11:48:53;;;;;;;8.25;4.78;;;;;;;22.71;35.28;96824.59;10291317;28;20033;-60
2022/04/22 11:53:52;;;;;;;3.58;2.45;;;;;;;22.90;34.95;96807.56;10286388;28;20460;-60
2022/04/22 11:58:53;;;;;;;5.22;3.60;;;;;;;23.09;34.68;96812.47;10290269;28;20057;-59
2022/04/22 12:09:11;;;;;;;15.73;9.70;;;;;;;22.68;34.35;96695.22;10290412;28;20069;-60
2022/04/22 12:14:11;;;;;;;6.47;3.83;;;;;;;22.74;33.77;96749.53;10290101;28;20065;-60
2022/04/22 12:19:11;;;;;;;5.13;3.25;;;;;;;22.96;34.10;96804.53;10290370;28;20249;-60
2022/04/22 12:24:15;;;;;;;4.72;3.30;;;;;;;22.87;34.46;96782.16;10290443;28;20064;-60
2022/04/22 12:29:16;;;;;;;4.93;2.45;;;;;;;22.84;34.96;96786.81;10288315;28;20073;-60
2022/04/22 12:34:28;;;;;;;5.07;2.70;;;;;;;22.72;34.02;96760.19;10289858;28;20072;-60
2022/04/22 12:39:46;;;;;;;4.13;2.60;;;;;;;22.45;33.68;96736.38;10289268;28;20076;-60
2022/04/22 12:56:03;;;;;;;4.82;3.28;;;;;;;22.64;34.81;96753.69;10289825;28;20065;-60
2022/04/22 13:01:06;;;;;;;3.60;2.92;;;;;;;22.71;35.61;96739.97;10289364;28;20492;-61
2022/04/22 13:06:05;;;;;;;2.65;2.20;;;;;;;22.98;36.00;96733.84;10287427;28;20511;-60
2022/04/22 13:11:08;;;;;;;4.25;2.38;;;;;;;22.96;35.16;96733.94;10291819;28;20057;-60
2022/04/22 13:16:07;;;;;;;2.85;2.65;;;;;;;22.96;35.66;96728.63;10297302;28;20058;-61
2022/04/22 13:21:05;;;;;;;3.88;2.45;;;;;;;22.74;34.69;96712.50;10297588;28;20117;-61
2022/04/22 13:26:04;;;;;;;4.38;2.60;;;;;;;22.82;36.13;96719.94;10293941;28;20120;-61
2022/04/22 13:31:03;;;;;;;2.80;2.50;;;;;;;22.84;35.98;96723.34;10296907;28;20034;-60
2022/04/22 13:36:03;;;;;;;2.97;2.65;;;;;;;22.77;35.67;96715.78;10290855;28;20474;-60
2022/04/22 13:41:02;;;;;;;3.42;2.70;;;;;;;22.65;36.59;96705.13;10295846;28;20480;-60
2022/04/22 13:56:37;;;;;;;4.20;2.97;;;;;;;22.41;37.05;96684.66;10295152;28;20479;-60
2022/04/22 14:01:39;;;;;;;4.07;2.40;;;;;;;22.50;37.66;96689.34;10296369;28;20077;-60
2022/04/22 14:06:38;;;;;;;3.60;2.30;;;;;;;22.35;37.80;96638.34;10296517;28;20077;-60
2022/04/22 14:11:38;;;;;;;4.72;2.15;;;;;;;22.61;38.10;96691.28;10295020;28;20066;-60
2022/04/22 14:16:37;;;;;;;3.15;2.22;;;;;;;22.50;37.60;96705.22;10292244;28;20507;-61
2022/04/22 14:21:36;;;;;;;14.43;5.80;;;;;;;22.16;36.96;96627.31;10291335;28;20057;-60
2022/04/22 14:26:35;;;;;;;7.72;3.88;;;;;;;22.27;36.61;96674.16;10291600;28;20046;-61
2022/04/22 14:31:34;;;;;;;3.95;2.67;;;;;;;22.07;37.00;96680.75;10295334;28;20104;-60
2022/04/22 14:36:33;;;;;;;4.63;2.60;;;;;;;21.43;36.64;96604.66;10294684;28;20064;-60
2022/04/22 14:41:32;;;;;;;3.17;2.78;;;;;;;21.71;37.68;96658.31;10294080;28;20058;-60
2022/04/22 14:46:31;;;;;;;3.28;2.33;;;;;;;20.95;37.37;96542.59;10294396;28;20041;-60
2022/04/22 14:51:30;;;;;;;4.60;2.47;;;;;;;21.19;37.95;96596.44;10308732;28;20408;-60
2022/04/22 14:56:29;;;;;;;4.60;3.13;;;;;;;21.34;38.98;96661.50;10293548;28;20061;-60
2022/04/22 15:01:28;;;;;;;4.15;2.88;;;;;;;21.14;38.95;96633.66;10293991;28;20049;-60
2022/04/22 15:06:28;;;;;;;3.67;2.70;;;;;;;21.09;40.09;96630.47;10293430;28;20057;-60
2022/04/22 15:11:26;;;;;;;4.90;3.50;;;;;;;21.19;40.60;96608.78;10293405;28;20063;-60
2022/04/22 15:16:27;;;;;;;4.20;2.85;;;;;;;20.84;41.43;96583.63;10293034;28;20021;-61
2022/04/22 15:26:44;;;;;;;4.80;3.33;;;;;;;20.74;41.39;96624.69;10292778;28;20061;-60
2022/04/22 15:31:44;;;;;;;4.00;3.30;;;;;;;20.67;40.63;96626.00;10291453;28;20060;-60
2022/04/22 15:36:42;;;;;;;6.30;4.32;;;;;;;20.59;40.95;96612.44;10292191;28;20080;-60
2022/04/22 15:41:45;;;;;;;2.80;2.50;;;;;;;20.39;40.61;96585.44;10291746;28;20032;-60
2022/04/22 15:46:44;;;;;;;3.45;2.17;;;;;;;20.36;40.34;96604.06;10292103;28;20061;-60
2022/04/22 15:51:43;;;;;;;3.63;2.90;;;;;;;20.06;40.22;96580.34;10290143;28;20133;-60
2022/04/22 15:56:42;;;;;;;5.57;2.83;;;;;;;20.16;40.16;96605.19;10291688;28;20037;-60
2022/04/22 16:01:43;;;;;;;3.17;2.25;;;;;;;20.04;40.99;96592.75;10291401;28;20064;-61
2022/04/22 16:06:42;;;;;;;3.72;2.58;;;;;;;19.72;40.72;96563.00;10291481;28;20073;-60
2022/04/22 16:17:02;;;;;;;10.23;4.57;;;;;;;19.65;40.71;96571.25;10290485;28;20065;-60
2022/04/22 16:22:02;;;;;;;9.25;4.78;;;;;;;19.31;41.10;96540.69;10289676;28;20175;-60
2022/04/22 16:27:01;;;;;;;5.80;2.92;;;;;;;19.42;41.38;96567.25;10289041;28;20073;-60
2022/04/22 16:32:01;;;;;;;16.83;7.35;;;;;;;18.94;41.54;96516.38;10290790;28;20546;-61
2022/04/22 16:37:01;;;;;;;4.93;3.40;;;;;;;19.10;41.34;96562.91;10289973;28;20057;-60
2022/04/22 16:42:00;;;;;;;5.88;3.55;;;;;;;18.98;41.86;96562.63;10289111;28;20065;-60
2022/04/22 16:46:59;;;;;;;5.35;2.70;;;;;;;18.82;41.83;96559.13;10289709;28;20073;-60
2022/04/22 16:51:58;;;;;;;4.22;2.92;;;;;;;18.65;41.98;96565.25;10289786;28;20084;-60
2022/04/22 16:56:58;;;;;;;2.63;2.30;;;;;;;18.22;42.23;96516.69;10289745;28;20022;-60
2022/04/22 17:02:00;;;;;;;7.03;3.92;;;;;;;18.35;42.27;96555.38;10260145;28;20077;-60
2022/04/22 17:06:59;;;;;;;4.72;2.63;;;;;;;18.19;42.38;96555.31;10284975;28;20065;-60
2022/04/22 17:11:58;;;;;;;5.35;2.97;;;;;;;17.76;42.68;96515.47;10288545;28;20121;-60
2022/04/22 17:27:33;;;;;;;3.17;2.25;;;;;;;17.58;42.90;96557.47;10289469;28;20073;-60
2022/04/22 17:32:32;;;;;;;4.45;3.10;;;;;;;17.39;43.58;96544.38;10289369;28;20061;-61
2022/04/22 17:37:32;;;;;;;5.82;2.65;;;;;;;17.21;44.18;96554.81;10288940;28;20026;-60
2022/04/22 17:42:31;;;;;;;3.22;2.28;;;;;;;17.04;44.34;96557.38;10289821;28;20440;-61
2022/04/22 17:47:30;;;;;;;3.40;2.10;;;;;;;16.81;44.03;96550.56;10289066;28;20057;-61
2022/04/22 17:52:30;;;;;;;3.78;2.20;;;;;;;16.75;44.03;96550.78;10288814;28;20100;-61
2022/04/22 17:57:29;;;;;;;5.43;2.40;;;;;;;16.60;44.02;96561.03;10293050;28;20061;-61
2022/04/22 18:02:29;;;;;;;3.38;2.40;;;;;;;16.46;44.01;96563.41;10294984;28;20082;-60
2022/04/22 18:07:29;;;;;;;2.47;1.63;;;;;;;16.17;44.14;96522.81;10295576;28;20061;-60
2022/04/22 18:12:28;;;;;;;2.97;2.15;;;;;;;16.29;44.42;96561.53;10295353;28;20061;-61
2022/04/22 18:17:28;;;;;;;;;;;;;;;16.19;45.17;96563.69;10295725;28;20062;-60
2022/04/22 18:22:26;;;;;;;7.10;3.55;;;;;;;16.06;45.49;96550.25;10295671;28;19964;-61
2022/04/22 18:27:26;;;;;;;;;;;;;;;15.91;45.14;96564.00;10295850;28;20042;-61
2022/04/22 18:32:25;;;;;;;11.07;4.80;;;;;;;15.80;45.59;96550.50;10294616;28;19960;-61
2022/04/22 18:37:25;;;;;;;9.85;4.50;;;;;;;15.80;45.94;96568.81;10294575;28;20049;-61
2022/04/22 18:42:24;;;;;;;8.85;4.35;;;;;;;15.68;46.02;96568.38;10294832;28;20076;-61
2022/04/22 18:47:26;;;;;;;7.00;3.40;;;;;;;15.56;46.00;96566.25;10294202;28;20068;-61
2022/04/22 18:52:25;;;;;;;10.05;3.13;;;;;;;15.42;45.61;96552.88;10293582;28;20092;-60
2022/04/22 18:57:24;;;;;;;;;;;;;;;15.51;45.72;96570.81;10294158;28;20030;-61
2022/04/22 19:02:23;;;;;;;10.80;4.95;;;;;;;14.86;45.72;96482.78;10293516;28;19909;-60
2022/04/22 19:07:22;;;;;;;14.30;8.20;;;;;;;15.35;47.29;96580.16;10291172;28;20144;-60
2022/04/22 19:12:21;;;;;;;16.67;9.02;;;;;;;14.95;47.90;96553.81;10292887;28;20437;-60
2022/04/22 19:17:20;;;;;;;15.43;8.40;;;;;;;14.87;48.09;96576.72;10291987;28;20488;-60
2022/04/22 19:22:19;;;;;;;29.25;13.43;;;;;;;14.61;48.03;96528.03;10292833;28;20349;-60
2022/04/22 19:27:18;;;;;;;40.80;15.90;;;;;;;14.73;47.46;96556.38;10292656;28;20036;-60
2022/04/22 19:32:18;;;;;;;;;;;;;;;14.75;46.65;96554.53;10292803;28;20538;-60
2022/04/22 19:42:35;;;;;;;61.67;26.23;;;;;;;14.62;48.47;96554.09;10292558;28;20065;-61
2022/04/22 19:47:35;;;;;;;11.27;5.85;;;;;;;14.51;48.64;96542.34;10291736;28;20057;-60
2022/04/22 19:52:35;;;;;;;21.65;10.65;;;;;;;13.67;51.03;96453.09;10291606;28;20088;-61
2022/04/22 19:57:34;;;;;;;27.10;15.00;;;;;;;14.02;52.01;96549.28;10291538;28;20057;-61
2022/04/22 20:02:34;;;;;;;23.27;8.48;;;;;;;13.75;52.48;96546.72;10290493;28;20053;-61
2022/04/22 20:07:34;;;;;;;22.75;13.52;;;;;;;13.57;52.85;96538.56;10289783;28;20065;-61
2022/04/22 20:12:33;;;;;;;8.88;5.22;;;;;;;13.49;50.86;96543.16;10290997;28;20478;-61
2022/04/22 20:17:34;;;;;;;13.80;5.68;;;;;;;13.68;49.34;96539.97;10290437;28;20062;-61
2022/04/22 20:22:33;;;;;;;6.93;4.40;;;;;;;13.87;47.99;96524.59;10289592;28;20061;-61
2022/04/22 20:27:32;;;;;;;7.13;3.88;;;;;;;14.17;47.32;96535.69;10290775;28;20061;-60
2022/04/22 20:32:48;;;;;;;6.72;4.30;;;;;;;14.12;47.06;96514.16;10290142;28;20116;-61
2022/04/22 20:43:10;;;;;;;7.05;3.45;;;;;;;14.08;45.92;96473.44;10261683;28;20077;-61
2022/04/22 20:48:13;;;;;;;6.00;4.20;;;;;;;14.18;45.54;96470.44;10289982;28;20066;-61
2022/04/22 20:58:30;;;;;;;18.95;10.38;;;;;;;14.70;44.80;96538.19;10290312;28;20448;-61
2022/04/22 21:03:28;;;;;;;;;;;;;;;14.70;44.76;96540.78;10290742;28;20488;-61
2022/04/22 21:08:28;;;;;;;8.13;3.97;;;;;;;14.76;44.32;96550.19;10290047;28;20381;-61
2022/04/22 21:13:30;;;;;;;4.78;3.03;;;;;;;14.55;44.25;96516.09;10289318;28;20061;-61
2022/04/22 21:18:30;;;;;;;7.60;3.85;;;;;;;14.83;44.03;96552.50;10289666;28;20760;-61
2022/04/22 21:23:29;;;;;;;7.80;5.10;;;;;;;14.85;43.79;96554.19;10289696;28;20476;-61
2022/04/22 21:28:28;;;;;;;5.88;3.53;;;;;;;14.56;43.43;96514.31;10289072;28;20069;-61
2022/04/22 21:33:27;;;;;;;8.65;5.35;;;;;;;14.60;43.58;96539.41;10294577;28;20096;-61
2022/04/22 21:38:26;;;;;;;10.63;6.93;;;;;;;14.09;43.24;96459.47;10296833;28;20022;-61
2022/04/22 21:43:26;;;;;;;11.05;5.65;;;;;;;14.75;43.39;96575.41;10296678;28;20038;-61
2022/04/22 21:48:25;;;;;;;17.60;10.95;;;;;;;14.40;43.54;96514.88;10296686;28;20069;-61
2022/04/22 21:53:24;;;;;;;10.35;5.80;;;;;;;14.63;43.51;96579.28;10295988;28;20050;-61
2022/04/22 21:58:23;;;;;;;11.25;6.32;;;;;;;14.57;43.47;96583.91;10295058;28;20121;-61
2022/04/22 22:03:24;;;;;;;5.00;3.20;;;;;;;14.50;43.32;96600.66;10295746;28;20034;-61
2022/04/22 22:08:24;;;;;;;5.82;2.65;;;;;;;14.45;43.96;96597.38;10295103;28;20065;-61
2022/04/22 22:13:23;;;;;;;5.03;2.58;;;;;;;14.36;43.94;96593.34;10294725;28;20427;-61
2022/04/22 22:18:22;;;;;;;6.22;2.60;;;;;;;14.29;43.50;96597.03;10295440;28;20463;-61
2022/04/22 22:23:21;;;;;;;3.20;2.17;;;;;;;14.28;43.84;96593.59;10295071;28;20422;-60
2022/04/22 22:28:20;;;;;;;4.47;2.05;;;;;;;14.24;43.88;96589.41;10294767;28;20029;-61
2022/04/22 22:33:20;;;;;;;7.30;2.28;;;;;;;14.10;44.23;96586.38;10294738;28;20073;-61
2022/04/22 22:38:19;;;;;;;4.30;2.15;;;;;;;14.04;43.86;96584.00;10294296;28;20066;-61
2022/04/22 22:43:20;;;;;;;3.97;2.28;;;;;;;14.10;44.23;96596.81;10294359;28;20045;-61
2022/04/22 22:48:19;;;;;;;4.60;1.90;;;;;;;13.64;44.30;96541.00;10292813;28;20069;-61
2022/04/22 22:53:19;;;;;;;4.25;2.10;;;;;;;13.90;44.12;96579.25;10293742;28;20535;-61
2022/04/22 22:58:17;;;;;;;;;;;;;;;13.94;44.53;96588.69;10294353;28;20527;-61
2022/04/22 23:03:16;;;;;;;3.58;2.30;;;;;;;13.85;44.74;96594.19;10293467;28;19920;-61
2022/04/22 23:08:16;;;;;;;2.97;2.25;;;;;;;13.74;44.64;96594.53;10293149;28;20066;-61
2022/04/22 23:13:15;;;;;;;6.10;2.08;;;;;;;13.00;44.75;96473.50;10293215;28;20541;-61
2022/04/22 23:18:17;;;;;;;5.72;2.58;;;;;;;12.83;44.80;96445.38;10293399;28;20420;-61
2022/04/22 23:23:16;;;;;;;6.22;1.92;;;;;;;13.28;44.65;96522.97;10292856;28;20092;-61
2022/04/22 23:28:15;;;;;;;2.20;1.90;;;;;;;13.21;44.33;96508.44;10292246;28;20057;-61
2022/04/22 23:33:15;;;;;;;2.40;1.90;;;;;;;13.68;44.34;96576.47;10293047;28;20041;-61
2022/04/22 23:38:14;;;;;;;4.00;1.90;;;;;;;13.69;44.25;96575.59;10292365;28;20068;-61
2022/04/22 23:43:17;;;;;;;3.67;2.10;;;;;;;13.70;44.49;96585.97;10291885;28;20034;-61
2022/04/22 23:48:16;;;;;;;3.42;1.90;;;;;;;13.63;44.15;96576.63;10291820;28;20080;-61
2022/04/22 23:53:14;;;;;;;2.50;1.75;;;;;;;13.46;43.98;96548.47;10291360;28;20056;-61
2022/04/22 23:58:13;;;;;;;3.08;1.88;;;;;;;13.67;43.96;96587.81;10291423;28;20048;-61
